createdAt,value
2018-05-02T00:22:30.651Z,6.30
2018-05-02T00:24:58.914Z,6.30
2018-05-02T00:27:26.416Z,6.30
2018-05-02T00:29:53.915Z,6.30
2018-05-02T00:32:21.414Z,6.40
2018-05-02T00:34:49.685Z,6.30
2018-05-02T00:37:17.961Z,6.30
2018-05-02T00:39:46.235Z,6.20
2018-05-02T00:42:14.504Z,6.20
2018-05-02T00:44:42.766Z,6.00
2018-05-02T00:47:10.265Z,6.00
2018-05-02T00:49:37.849Z,6.00
2018-05-02T00:52:05.353Z,6.10
2018-05-02T00:54:32.858Z,5.90
2018-05-02T00:57:00.366Z,5.90
2018-05-02T00:59:27.870Z,5.80
2018-05-02T01:01:55.381Z,5.90
2018-05-02T01:04:22.877Z,5.90
2018-05-02T01:06:50.377Z,5.80
2018-05-02T01:09:17.882Z,5.70
2018-05-02T01:11:46.145Z,5.70
2018-05-02T01:14:14.426Z,5.70
2018-05-02T01:16:42.705Z,5.90
2018-05-02T05:22:11.372Z,5.20
2018-05-02T05:27:32.880Z,5.40
2018-05-02T05:30:00.385Z,5.40
2018-05-02T05:32:28.656Z,5.50
2018-05-02T05:34:56.921Z,5.60
2018-05-02T05:37:24.424Z,5.60
2018-05-02T05:39:51.931Z,5.70
2018-05-02T05:42:19.446Z,5.70
2018-05-02T05:44:46.953Z,5.80
2018-05-02T05:47:14.464Z,5.90
2018-05-02T05:49:41.995Z,6.00
2018-05-02T05:52:10.270Z,6.10
2018-05-02T05:54:38.541Z,6.20
2018-05-02T05:57:06.805Z,6.50
2018-05-02T05:59:34.304Z,6.50
2018-05-02T06:02:01.818Z,6.60
2018-05-02T06:04:29.325Z,6.70
2018-05-02T06:06:56.961Z,6.80
2018-05-02T06:09:25.273Z,6.90
2018-05-02T06:11:52.767Z,6.90
2018-05-02T06:20:26.406Z,7.10
2018-05-02T07:20:29.165Z,8.90
2018-05-02T07:22:56.668Z,8.90
2018-05-02T07:25:24.170Z,9.00
2018-05-02T07:27:51.670Z,9.00
2018-05-02T07:30:19.163Z,9.20
2018-05-02T07:32:47.453Z,9.20
2018-05-02T07:35:14.949Z,9.20
2018-05-02T07:37:42.473Z,9.60
2018-05-02T07:40:09.968Z,9.70
2018-05-02T07:42:37.976Z,9.80
2018-05-02T07:45:06.246Z,9.80
2018-05-02T07:47:33.751Z,9.80
2018-05-02T07:50:01.255Z,9.90
2018-05-02T07:52:28.761Z,10.00
2018-05-02T07:54:56.265Z,10.10
2018-05-02T07:57:23.766Z,10.20
2018-05-02T07:59:52.149Z,10.50
2018-05-02T08:02:19.678Z,10.40
2018-05-02T08:04:47.181Z,10.60
2018-05-02T08:07:14.682Z,10.70
2018-05-02T08:09:42.190Z,10.70
2018-05-02T08:24:01.547Z,11.30
2018-05-02T08:26:29.057Z,11.30
2018-05-02T08:28:56.561Z,11.60
2018-05-02T08:31:24.146Z,11.40
2018-05-02T08:33:51.638Z,11.60
2018-05-02T08:36:19.138Z,11.60
2018-05-02T08:38:46.798Z,11.80
2018-05-02T08:41:14.253Z,11.70
2018-05-02T08:43:41.750Z,11.90
2018-05-02T08:46:09.260Z,12.00
2018-05-02T08:48:37.614Z,11.70
2018-05-02T08:51:05.115Z,11.60
2018-05-02T08:53:32.629Z,11.60
2018-05-02T08:56:00.142Z,12.00
2018-05-02T08:58:27.641Z,12.00
2018-05-02T09:00:55.138Z,12.00
2018-05-02T09:03:23.413Z,12.40
2018-05-02T09:05:51.681Z,12.10
2018-05-02T09:08:19.951Z,12.20
2018-05-02T09:10:48.218Z,12.30
2018-05-02T09:13:16.102Z,12.30
2018-05-02T09:18:38.045Z,12.60
2018-05-02T10:15:49.410Z,14.00
2018-05-02T16:14:39.928Z,15.30
2018-05-02T16:17:11.157Z,15.20
2018-05-02T16:19:38.753Z,15.00
2018-05-02T16:28:12.497Z,14.80
2018-05-02T17:22:26.982Z,13.90
2018-05-02T18:13:31.509Z,13.10
2018-05-02T18:15:59.781Z,13.50
2018-05-02T18:21:46.045Z,13.50
2018-05-02T19:12:51.233Z,12.40
2018-05-02T19:18:18.989Z,12.20
2018-05-02T19:20:48.117Z,12.10
2018-05-02T19:23:19.773Z,12.00
2018-05-02T19:28:50.194Z,12.10
2018-05-02T19:31:23.411Z,11.90
2018-05-02T19:33:52.934Z,11.80
2018-05-02T19:36:20.454Z,11.80
2018-05-02T19:38:47.959Z,11.80
2018-05-02T19:41:21.148Z,11.80
2018-05-02T19:43:54.249Z,11.70
2018-05-02T19:46:21.877Z,11.70
2018-05-02T19:48:49.381Z,11.70
2018-05-02T19:51:23.345Z,11.70
2018-05-02T19:53:50.871Z,11.60
2018-05-02T19:56:43.898Z,11.70
2018-05-02T19:59:17.323Z,11.60
2018-05-02T20:01:50.587Z,11.50
2018-05-02T20:04:18.152Z,11.50
2018-05-02T20:06:46.445Z,11.30
2018-05-02T20:09:29.061Z,11.40
2018-05-02T20:12:02.125Z,11.40
2018-05-02T20:14:29.637Z,11.40
2018-05-02T20:16:57.246Z,11.40
2018-05-02T20:19:30.526Z,11.40
2018-05-02T20:24:50.854Z,11.40
2018-05-02T20:27:18.361Z,11.30
2018-05-02T20:29:45.876Z,11.20
2018-05-02T20:32:13.601Z,11.10
2018-05-02T20:34:41.163Z,11.10
2018-05-02T20:37:08.692Z,11.20
2018-05-02T20:39:36.196Z,11.30
2018-05-02T20:42:03.745Z,11.20
2018-05-02T20:44:31.221Z,11.10
2018-05-02T20:46:58.709Z,11.20
2018-05-02T20:49:27.144Z,11.30
2018-05-02T20:51:55.347Z,11.20
2018-05-02T20:54:22.842Z,11.20
2018-05-02T20:56:52.638Z,11.10
2018-05-02T20:59:20.933Z,11.20
2018-05-02T21:01:48.454Z,11.20
2018-05-02T21:04:15.949Z,11.30
2018-05-02T21:06:43.553Z,11.20
2018-05-02T21:09:11.054Z,11.20
2018-05-02T21:11:39.317Z,11.10
2018-05-02T21:14:06.819Z,11.10
2018-05-02T21:16:34.329Z,11.10
2018-05-02T22:13:34.741Z,10.50
2018-05-02T22:16:03.009Z,10.40
2018-05-02T22:18:30.537Z,10.40
2018-05-02T22:23:50.462Z,10.30
2018-05-02T22:26:17.965Z,10.30
2018-05-02T22:28:45.520Z,10.20
2018-05-02T22:31:13.017Z,10.30
2018-05-02T22:33:40.524Z,10.20
2018-05-02T22:36:08.794Z,10.10
2018-05-02T22:38:37.053Z,10.10
2018-05-02T22:41:04.552Z,10.10
2018-05-02T22:43:32.053Z,10.10
2018-05-02T22:45:59.825Z,10.00
2018-05-02T22:48:27.320Z,9.90
2018-05-02T22:50:55.584Z,9.80
2018-05-02T22:53:23.848Z,9.70
2018-05-02T22:55:51.341Z,9.70
2018-05-02T22:58:18.833Z,9.80
2018-05-02T23:00:46.325Z,9.80
2018-05-02T23:03:13.903Z,9.80
2018-05-02T23:05:42.166Z,9.80
2018-05-02T23:08:09.675Z,9.70
2018-05-02T23:10:37.173Z,9.80
2018-05-02T23:15:57.896Z,9.70
2018-05-02T23:18:48.196Z,9.70
